Terminal Aerodrome Forecast
Issued by NWS Charleston, WV

Current Version | Previous Version | Text Only | Print | Product List | Glossary Off
Versions: 1 2 3 4 5 6 7 8 9 10 11 12 13 14 15 16 17 18 19 20 21 22 23 24 25 26

867
FTUS41 KRLX 272333
TAFPKB
TAF
KPKB 272333Z 2800/2824 21005KT P6SM SKC
     FM280900 00000KT 5SM BR SCT080
     FM281400 VRB03KT P6SM SCT060
     FM281800 21004KT P6SM SCT040=

USA.gov is the U.S. government's official web portal to all federal, state and local government web resources and services.